Time;durP1;ratioP1;P1;durP2;ratioP2;P2;SDS_P1;SDS_P2;PMS_P1;PMS_P2;Temp;Humidity;BMP_temperature;BMP_pressure;BME280_temperature;BME280_humidity;BME280_pressure;Samples;Min_cycle;Max_cycle;Signal;HPM_P1;HPM_P2
2021/06/02 00:01:59;;;;;;;;;8.00;7.00;;;;;26.13;36.93;100450.41;5036497;28;45496;-56
2021/06/02 00:04:27;;;;;;;;;5.75;5.75;;;;;26.10;37.08;100443.41;5027396;28;48339;-55
2021/06/02 00:07:02;;;;;;;;;6.50;6.25;;;;;26.10;36.62;100451.56;5038518;28;46406;-55
2021/06/02 00:09:28;;;;;;;;;7.50;7.50;;;;;26.08;36.99;100441.81;5032978;28;45471;-56
2021/06/02 00:11:56;;;;;;;;;8.25;8.25;;;;;26.07;37.11;100445.53;5034369;28;45478;-55
2021/06/02 00:14:24;;;;;;;;;7.00;7.00;;;;;26.06;36.59;100443.81;5034106;28;47494;-55
2021/06/02 00:16:51;;;;;;;;;8.75;6.75;;;;;26.05;37.19;100433.94;5031139;28;45529;-54
2021/06/02 00:19:17;;;;;;;;;8.50;8.50;;;;;26.04;37.00;100437.63;5032214;28;45433;-55
2021/06/02 00:21:43;;;;;;;;;7.00;7.00;;;;;26.03;36.67;100441.34;5037219;28;45609;-55
2021/06/02 00:24:09;;;;;;;;;6.75;6.75;;;;;26.01;36.99;100446.09;5033646;28;46607;-55
2021/06/02 00:26:35;;;;;;;;;8.00;7.75;;;;;26.02;37.15;100448.66;5033390;28;45361;-55
2021/06/02 00:29:04;;;;;;;;;7.75;7.25;;;;;26.01;36.83;100436.06;5032909;28;45448;-55
2021/06/02 00:31:30;;;;;;;;;9.75;9.75;;;;;26.00;36.68;100442.50;5028082;28;46731;-56
2021/06/02 00:33:56;;;;;;;;;7.00;7.00;;;;;26.00;36.81;100447.94;5034239;28;46563;-54
2021/06/02 00:36:23;;;;;;;;;9.25;7.75;;;;;26.00;37.35;100449.81;5031488;28;45453;-55
2021/06/02 00:38:50;;;;;;;;;8.00;8.00;;;;;25.99;37.30;100456.25;5033859;28;45732;-55
2021/06/02 00:41:17;;;;;;;;;6.25;6.25;;;;;25.97;37.16;100453.66;5031764;28;45668;-55
2021/06/02 00:43:43;;;;;;;;;7.00;7.00;;;;;25.96;37.39;100449.22;5037818;28;47329;-54
2021/06/02 00:46:09;;;;;;;;;9.00;9.00;;;;;25.96;36.75;100454.66;5039968;28;45626;-55
2021/06/02 00:48:37;;;;;;;;;8.00;8.00;;;;;25.96;37.24;100451.09;5033613;28;45737;-54
2021/06/02 00:51:03;;;;;;;;;7.00;7.00;;;;;25.95;37.40;100450.22;5032670;28;45378;-55
2021/06/02 00:53:29;;;;;;;;;9.25;9.25;;;;;25.94;37.24;100456.66;5042388;28;47335;-57
2021/06/02 00:56:02;;;;;;;;;7.50;7.00;;;;;25.91;37.41;100454.19;5034228;28;45434;-56
2021/06/02 00:58:29;;;;;;;;;6.75;6.75;;;;;25.89;37.90;100452.63;5009541;28;45602;-56
2021/06/02 01:00:56;;;;;;;;;7.75;6.00;;;;;25.85;37.47;100452.06;5033724;28;45459;-55
2021/06/02 01:03:26;;;;;;;;;9.25;9.25;;;;;25.81;37.44;100447.91;5034134;28;46494;-55
2021/06/02 01:05:54;;;;;;;;;7.00;7.00;;;;;25.76;37.39;100447.44;5034175;28;45235;-56
2021/06/02 01:08:21;;;;;;;;;7.75;7.75;;;;;25.70;37.89;100448.84;5034329;28;45452;-53
2021/06/02 01:10:49;;;;;;;;;6.00;6.00;;;;;25.65;38.06;100440.19;5031012;28;45529;-56
2021/06/02 01:13:17;;;;;;;;;8.00;8.00;;;;;25.59;37.90;100450.78;5031827;28;47532;-54
2021/06/02 01:15:45;;;;;;;;;7.00;7.00;;;;;25.53;37.85;100444.88;5030629;28;45430;-56
2021/06/02 01:18:12;;;;;;;;;7.50;7.50;;;;;25.49;38.08;100446.13;5035047;28;45457;-54
2021/06/02 01:20:39;;;;;;;;;7.50;7.50;;;;;25.46;38.22;100449.13;5032201;28;46393;-54
2021/06/02 01:23:07;;;;;;;;;8.50;8.00;;;;;25.47;38.08;100445.41;5034933;28;47234;-54
2021/06/02 01:25:35;;;;;;;;;7.00;7.00;;;;;25.46;38.21;100440.97;5033979;28;45984;-55
2021/06/02 01:28:03;;;;;;;;;7.50;7.50;;;;;25.46;38.62;100434.69;5031756;28;45564;-56
2021/06/02 01:30:29;;;;;;;;;8.25;8.25;;;;;25.43;38.33;100432.25;5027021;28;45304;-54
2021/06/02 01:33:33;;;;;;;;;7.25;7.25;;;;;25.43;38.31;100437.69;5035867;28;47691;-55
2021/06/02 01:36:06;;;;;;;;;8.75;8.75;;;;;25.45;38.36;100444.69;5027761;28;46904;-55
2021/06/02 01:39:17;;;;;;;;;6.75;6.75;;;;;25.44;38.80;100444.84;5030513;28;45330;-54
2021/06/02 01:42:01;;;;;;;;;8.00;8.00;;;;;25.39;38.89;100442.50;4966192;28;47048;-56
2021/06/02 01:45:04;;;;;;;;;7.50;7.50;;;;;25.34;38.69;100441.19;5020683;28;48487;-56
2021/06/02 01:47:53;;;;;;;;;8.50;8.50;;;;;25.27;38.75;100450.88;5036440;28;45287;-55
2021/06/02 01:50:39;;;;;;;;;7.50;7.50;;;;;25.21;38.96;100452.28;5034595;28;45833;-56
2021/06/02 01:53:10;;;;;;;;;9.25;7.75;;;;;25.18;39.00;100445.28;5028536;28;45626;-59
2021/06/02 01:55:44;;;;;;;;;7.00;7.00;;;;;25.17;39.24;100440.84;5029607;28;45294;-54
2021/06/02 01:58:51;;;;;;;;;6.50;6.50;;;;;25.15;39.26;100450.94;5034027;28;45515;-55
2021/06/02 02:01:46;;;;;;;;;7.00;7.00;;;;;25.15;39.29;100452.78;5030816;28;45420;-53
2021/06/02 02:04:15;;;;;;;;;7.00;7.00;;;;;25.15;39.89;100442.78;5030421;28;45804;-55
2021/06/02 02:07:04;;;;;;;;;8.75;8.75;;;;;25.15;39.53;100448.22;5028951;28;46094;-56
2021/06/02 02:09:36;;;;;;;;;8.00;8.00;;;;;25.15;39.25;100444.66;5012188;28;46530;-54
2021/06/02 02:12:21;;;;;;;;;7.25;7.25;;;;;25.15;39.26;100450.94;5029759;28;45614;-54
2021/06/02 02:15:31;;;;;;;;;6.75;6.75;;;;;25.13;39.67;100442.06;5031672;28;45753;-56
2021/06/02 02:18:02;;;;;;;;;8.00;8.00;;;;;25.09;39.51;100439.78;4984187;28;46499;-55
2021/06/02 02:20:44;;;;;;;;;8.25;8.25;;;;;25.06;39.67;100437.31;5030995;28;45395;-54
2021/06/02 02:23:22;;;;;;;;;9.00;7.50;;;;;25.03;39.68;100438.47;5031822;28;45422;-54
2021/06/02 02:25:58;;;;;;;;;8.75;8.75;;;;;25.02;39.75;100441.28;5030879;28;45896;-57
2021/06/02 02:28:23;;;;;;;;;9.25;7.75;;;;;25.05;39.63;100435.59;5030796;28;47584;-54
2021/06/02 02:31:08;;;;;;;;;8.00;8.00;;;;;25.03;39.87;100449.31;5029305;28;45716;-52
2021/06/02 02:34:16;;;;;;;;;8.00;8.00;;;;;25.03;39.63;100437.56;5029378;28;45409;-57
2021/06/02 02:36:46;;;;;;;;;8.50;7.00;;;;;25.00;40.26;100443.22;5028736;28;45350;-56
2021/06/02 02:39:21;;;;;;;;;8.25;7.75;;;;;25.00;39.97;100445.94;5032636;28;45624;-54
2021/06/02 02:41:59;;;;;;;;;10.00;8.00;;;;;24.98;40.12;100445.22;5033918;28;45952;-55
2021/06/02 02:44:51;;;;;;;;;8.75;8.75;;;;;24.94;40.27;100456.34;5033349;28;45609;-55
2021/06/02 02:47:29;;;;;;;;;9.25;8.50;;;;;24.92;40.07;100452.91;5037990;28;45569;-53
2021/06/02 02:50:01;;;;;;;;;7.25;7.25;;;;;24.93;40.08;100451.91;5031917;28;45665;-53
2021/06/02 02:52:55;;;;;;;;;7.75;7.50;;;;;24.95;40.29;100449.94;5030332;28;45524;-57
2021/06/02 02:55:32;;;;;;;;;8.75;7.75;;;;;24.97;39.94;100446.22;5031370;28;45509;-56
2021/06/02 02:58:16;;;;;;;;;9.75;9.75;;;;;24.98;40.20;100443.38;5044971;28;45364;-55
2021/06/02 03:00:53;;;;;;;;;9.00;9.00;;;;;25.00;39.92;100445.94;5031108;28;47363;-54
2021/06/02 03:03:28;;;;;;;;;8.00;8.00;;;;;24.99;40.13;100450.53;5030971;28;45546;-56
2021/06/02 03:06:14;;;;;;;;;8.00;8.00;;;;;24.95;40.42;100440.94;5033254;28;45768;-56
2021/06/02 03:09:10;;;;;;;;;8.25;8.25;;;;;24.92;40.39;100441.19;5027736;28;45606;-55
2021/06/02 03:11:44;;;;;;;;;9.50;9.00;;;;;24.92;40.50;100442.06;5029584;28;47293;-54
2021/06/02 03:14:15;;;;;;;;;9.50;9.50;;;;;24.94;40.34;100441.94;5032902;28;45513;-53
2021/06/02 03:16:46;;;;;;;;;11.00;9.50;;;;;24.94;40.29;100442.78;5028852;28;45310;-55
2021/06/02 03:19:15;;;;;;;;;8.00;8.00;;;;;24.93;40.57;100453.78;5031449;28;45476;-54
2021/06/02 03:22:10;;;;;;;;;10.75;10.75;;;;;24.89;40.04;100455.00;5034299;28;47610;-55
2021/06/02 03:25:00;;;;;;;;;9.25;9.00;;;;;24.83;40.45;100447.41;5022875;28;45340;-55
2021/06/02 03:28:03;;;;;;;;;9.00;9.00;;;;;24.79;40.73;100448.69;5030002;28;45228;-55
2021/06/02 03:30:51;;;;;;;;;10.50;10.50;;;;;24.77;40.79;100451.50;5029215;28;45439;-55
2021/06/02 03:33:33;;;;;;;;;6.75;6.75;;;;;24.73;40.74;100454.59;5030252;28;47308;-56
2021/06/02 03:36:27;;;;;;;;;7.50;7.25;;;;;24.69;40.64;100447.72;5024263;28;45693;-54
2021/06/02 03:39:23;;;;;;;;;9.00;9.00;;;;;24.64;41.00;100456.25;5033389;28;45365;-56
2021/06/02 03:42:06;;;;;;;;;9.00;9.00;;;;;24.61;41.14;100451.06;5036440;28;45408;-55
2021/06/02 03:45:05;;;;;;;;;9.00;9.00;;;;;24.61;40.82;100442.94;5034575;28;46045;-55
2021/06/02 03:47:52;;;;;;;;;12.50;12.50;;;;;24.62;41.08;100436.50;5040021;28;46362;-56
2021/06/02 03:50:26;;;;;;;;;7.25;7.25;;;;;24.64;41.14;100442.66;5032918;28;45500;-55
2021/06/02 03:53:23;;;;;;;;;9.50;9.50;;;;;24.66;40.91;100446.13;5032154;28;45346;-55
2021/06/02 03:56:22;;;;;;;;;8.75;7.75;;;;;24.66;41.17;100440.72;5028819;28;47402;-53
2021/06/02 03:59:06;;;;;;;;;11.00;11.00;;;;;24.69;41.16;100447.72;5032776;28;45994;-53
2021/06/02 04:01:35;;;;;;;;;9.75;9.00;;;;;24.69;40.91;100443.16;5033923;28;45493;-55
2021/06/02 04:04:11;;;;;;;;;10.25;9.50;;;;;24.70;40.76;100447.59;5028136;28;45482;-54
2021/06/02 04:06:43;;;;;;;;;8.75;8.00;;;;;24.71;41.16;100453.88;5024083;28;46339;-55
2021/06/02 04:09:26;;;;;;;;;10.00;10.00;;;;;24.70;41.00;100453.03;5034634;28;45390;-56
2021/06/02 04:12:10;;;;;;;;;10.25;10.25;;;;;24.71;41.09;100448.44;5026158;28;45510;-57
2021/06/02 04:14:37;;;;;;;;;11.00;10.50;;;;;24.70;41.12;100441.31;5033527;28;45334;-55
2021/06/02 04:17:04;;;;;;;;;9.75;9.00;;;;;24.71;41.08;100443.03;5035523;28;48541;-54
2021/06/02 04:19:32;;;;;;;;;9.00;9.00;;;;;24.70;41.21;100453.03;5025564;28;45405;-55
2021/06/02 04:22:07;;;;;;;;;9.50;9.25;;;;;24.67;41.18;100449.72;5036760;28;45401;-55
2021/06/02 04:24:34;;;;;;;;;9.50;9.50;;;;;24.61;41.20;100456.50;5033600;28;45432;-54
2021/06/02 04:27:00;;;;;;;;;9.75;9.00;;;;;24.54;41.19;100453.47;5032015;28;48337;-53
2021/06/02 04:29:27;;;;;;;;;10.75;10.75;;;;;24.48;41.51;100461.25;5033146;28;45679;-54
2021/06/02 04:31:58;;;;;;;;;10.25;10.00;;;;;24.44;41.55;100454.34;5036165;28;45468;-53
2021/06/02 04:34:26;;;;;;;;;8.50;8.50;;;;;24.36;41.84;100449.56;5023308;28;45656;-55
2021/06/02 04:36:57;;;;;;;;;11.00;10.00;;;;;24.35;42.25;100453.25;5031768;28;48298;-56
2021/06/02 04:39:24;;;;;;;;;10.00;9.50;;;;;24.33;41.89;100456.09;5031245;28;45374;-54
2021/06/02 04:41:54;;;;;;;;;8.75;8.75;;;;;24.34;42.35;100463.25;5036591;28;45398;-56
2021/06/02 04:44:25;;;;;;;;;9.50;9.00;;;;;24.35;42.01;100450.56;5035791;28;45632;-55
2021/06/02 04:46:51;;;;;;;;;10.50;10.50;;;;;24.32;41.90;100450.81;5039390;28;46081;-54
2021/06/02 04:49:18;;;;;;;;;9.00;9.00;;;;;24.32;42.29;100453.53;5034074;28;45991;-55
2021/06/02 04:52:00;;;;;;;;;10.25;10.25;;;;;24.30;42.36;100453.66;5031194;28;45680;-55
2021/06/02 04:54:59;;;;;;;;;8.00;8.00;;;;;24.27;42.30;100459.31;5030040;28;45473;-55
2021/06/02 04:57:36;;;;;;;;;11.75;11.00;;;;;24.27;42.33;100455.75;5048344;28;48321;-55
2021/06/02 05:00:35;;;;;;;;;10.00;9.00;;;;;24.24;42.62;100466.81;5035172;28;45394;-56
2021/06/02 05:03:20;;;;;;;;;10.00;10.00;;;;;24.21;42.30;100456.22;5027723;28;45892;-54
2021/06/02 05:06:20;;;;;;;;;11.25;11.25;;;;;24.21;42.69;100469.78;5010071;28;45772;-55
2021/06/02 05:08:45;;;;;;;;;11.00;11.00;;;;;24.18;42.60;100465.50;5030803;28;47445;-55
2021/06/02 05:11:52;;;;;;;;;10.75;10.75;;;;;24.20;42.96;100476.22;5032795;28;45405;-61
2021/06/02 05:14:55;;;;;;;;;10.50;10.25;;;;;24.21;43.18;100472.50;5030934;28;45375;-54
2021/06/02 05:18:11;;;;;;;;;11.50;10.00;;;;;24.20;42.96;100470.78;5032409;28;45382;-55
2021/06/02 05:23:30;;;;;;;;;10.25;10.25;;;;;24.20;43.34;100465.34;4971014;28;45403;-54
2021/06/02 05:26:23;;;;;;;;;11.75;11.25;;;;;24.20;43.05;100484.34;5012576;28;45448;-54
2021/06/02 05:29:01;;;;;;;;;11.00;11.00;;;;;24.21;43.14;100477.94;5032256;28;45537;-55
2021/06/02 05:31:51;;;;;;;;;11.00;11.00;;;;;24.18;43.28;100498.03;5032052;28;46446;-54
2021/06/02 05:35:07;;;;;;;;;11.25;10.25;;;;;24.18;43.13;100494.47;5027313;28;45778;-55
2021/06/02 05:37:53;;;;;;;;;9.50;9.50;;;;;24.17;43.38;100495.44;5034065;28;45487;-55
2021/06/02 05:40:45;;;;;;;;;12.00;12.00;;;;;24.16;43.45;100493.72;5034639;28;45585;-56
2021/06/02 05:43:10;;;;;;;;;10.25;10.25;;;;;24.15;43.71;100503.72;5022270;28;47452;-54
2021/06/02 05:45:39;;;;;;;;;11.25;11.25;;;;;24.14;43.78;100498.38;5034099;28;45552;-54
2021/06/02 05:48:26;;;;;;;;;13.75;12.75;;;;;24.13;44.18;100493.94;5030346;28;45356;-58
2021/06/02 05:51:11;;;;;;;;;12.00;12.00;;;;;24.11;44.00;100502.22;5030448;28;45687;-55
2021/06/02 05:54:19;;;;;;;;;15.00;12.50;;;;;24.12;44.27;100501.22;5031568;28;47403;-57
2021/06/02 05:57:00;;;;;;;;;12.25;12.25;;;;;24.14;44.42;100511.94;5012655;28;45437;-55
2021/06/02 06:00:03;;;;;;;;;11.75;11.50;;;;;24.14;44.44;100511.94;5025520;28;45487;-58
2021/06/02 06:02:52;;;;;;;;;12.00;12.00;;;;;24.14;44.40;100512.84;5036663;28;45538;-56
2021/06/02 06:05:33;;;;;;;;;13.00;11.25;;;;;24.14;44.77;100510.13;5044613;28;46330;-53
2021/06/02 06:08:17;;;;;;;;;14.50;14.50;;;;;24.16;45.17;100516.28;5055831;28;45475;-56
2021/06/02 06:11:14;;;;;;;;;16.00;15.50;;;;;24.16;44.89;100510.84;5051457;28;45511;-56
2021/06/02 06:13:45;;;;;;;;;11.50;11.50;;;;;24.18;44.82;100510.72;5055535;28;45410;-56
2021/06/02 06:16:22;;;;;;;;;13.75;12.25;;;;;24.17;44.99;100512.56;5055486;28;45389;-56
2021/06/02 06:18:53;;;;;;;;;14.00;14.00;;;;;24.18;45.48;100505.31;5043987;28;45961;-56
2021/06/02 06:21:48;;;;;;;;;14.75;14.75;;;;;24.17;45.73;100506.28;5042038;28;45447;-57
2021/06/02 06:24:30;;;;;;;;;13.25;12.75;;;;;24.18;45.69;100508.00;5045828;28;45422;-57
2021/06/02 06:27:15;;;;;;;;;11.50;11.50;;;;;24.18;45.92;100508.00;5055485;28;47975;-57
2021/06/02 06:30:00;;;;;;;;;14.25;12.00;;;;;24.18;46.03;100508.00;5053065;28;45555;-55
2021/06/02 06:32:29;;;;;;;;;13.75;13.75;;;;;24.20;46.14;100512.31;5036278;28;45384;-55
2021/06/02 06:34:55;;;;;;;;;12.25;12.25;;;;;24.21;46.14;100510.47;5055742;28;45672;-57
2021/06/02 06:37:23;;;;;;;;;17.75;16.00;;;;;24.23;46.51;100512.06;5052483;28;47361;-57
2021/06/02 06:39:54;;;;;;;;;17.75;16.25;;;;;24.23;46.04;100514.75;5048827;28;45365;-58
2021/06/02 06:42:24;;;;;;;;;15.50;15.50;;;;;24.27;46.42;100515.41;5037738;28;45574;-55
2021/06/02 06:44:55;;;;;;;;;15.50;14.25;;;;;24.29;46.32;100516.13;5043244;28;45680;-57
2021/06/02 06:47:22;;;;;;;;;18.00;15.00;;;;;24.30;46.59;100513.31;5052967;28;47946;-58
2021/06/02 06:49:54;;;;;;;;;18.75;18.25;;;;;24.33;46.80;100513.06;5054599;28;45913;-57
2021/06/02 06:52:28;;;;;;;;;15.00;15.00;;;;;24.31;46.43;100520.47;5067960;27;45309;-57
2021/06/02 06:54:57;;;;;;;;;15.00;15.00;;;;;24.33;46.83;100525.75;5049188;28;45900;-57
2021/06/02 06:57:23;;;;;;;;;16.00;16.00;;;;;24.32;47.09;100522.19;5065130;27;48419;-58
2021/06/02 06:59:50;;;;;;;;;14.00;14.00;;;;;24.34;47.11;100522.91;5058024;28;45462;-55
2021/06/02 07:02:17;;;;;;;;;14.00;14.00;;;;;24.35;47.01;100521.94;5062185;27;45468;-56
2021/06/02 07:04:44;;;;;;;;;15.75;15.75;;;;;24.36;47.15;100525.50;5066763;28;45316;-60
2021/06/02 07:07:10;;;;;;;;;16.00;14.25;;;;;24.37;47.46;100521.81;5046452;28;47259;-57
2021/06/02 07:09:38;;;;;;;;;11.50;11.50;;;;;24.36;47.52;100520.94;5055827;28;45692;-60
2021/06/02 07:12:05;;;;;;;;;16.50;16.50;;;;;24.34;47.61;100519.34;5039262;28;45439;-60
2021/06/02 07:14:32;;;;;;;;;14.75;14.75;;;;;24.33;47.66;100528.47;5050326;28;45559;-60
2021/06/02 07:17:04;;;;;;;;;11.75;11.75;;;;;24.31;48.04;100528.59;5066277;28;46504;-60
2021/06/02 07:19:32;;;;;;;;;14.75;14.75;;;;;24.28;47.99;100527.97;5060974;28;45644;-60
2021/06/02 07:21:58;;;;;;;;;17.25;15.25;;;;;24.26;48.14;100535.34;5058766;28;45402;-60
2021/06/02 07:24:24;;;;;;;;;18.75;18.50;;;;;24.26;48.51;100536.19;5060108;28;45365;-60
2021/06/02 07:26:51;;;;;;;;;16.00;16.00;;;;;24.22;48.51;100534.75;5063124;28;47100;-61
2021/06/02 07:29:16;;;;;;;;;15.50;15.50;;;;;24.21;48.93;100538.44;5063232;28;45482;-60
2021/06/02 07:31:42;;;;;;;;;17.00;16.00;;;;;24.22;48.80;100539.31;5059651;28;45351;-58
2021/06/02 07:34:08;;;;;;;;;16.75;16.50;;;;;24.24;49.31;100543.59;5062940;28;45571;-59
2021/06/02 07:36:34;;;;;;;;;17.75;17.00;;;;;24.26;49.11;100538.06;5059913;28;47321;-60
2021/06/02 07:39:00;;;;;;;;;17.50;17.50;;;;;24.29;49.05;100535.97;5075303;28;45719;-59
2021/06/02 07:41:26;;;;;;;;;16.25;16.25;;;;;24.32;49.37;100534.91;5076256;28;45724;-58
2021/06/02 07:43:52;;;;;;;;;21.25;19.25;;;;;24.33;49.11;100544.75;5060217;28;45951;-60
2021/06/02 07:46:17;;;;;;;;;19.75;19.50;;;;;24.33;49.36;100544.75;5057802;28;46964;-59
2021/06/02 07:48:43;;;;;;;;;15.00;15.00;;;;;24.36;49.45;100536.34;5054475;28;45952;-59
2021/06/02 07:51:09;;;;;;;;;17.75;17.75;;;;;24.41;49.40;100550.41;5059901;28;45671;-59
2021/06/02 07:53:35;;;;;;;;;17.75;17.00;;;;;24.44;49.66;100542.03;5058385;28;45366;-59
2021/06/02 07:56:01;;;;;;;;;17.75;17.00;;;;;24.47;49.78;100543.63;5043648;28;46647;-60
2021/06/02 07:58:26;;;;;;;;;18.50;18.50;;;;;24.48;49.83;100545.34;5058216;28;45437;-60
2021/06/02 08:00:52;;;;;;;;;21.75;20.50;;;;;24.51;49.76;100554.06;5059641;28;45691;-60
2021/06/02 08:03:17;;;;;;;;;14.75;13.50;;;;;24.51;49.63;100548.66;5058343;28;45849;-60
2021/06/02 08:05:43;;;;;;;;;16.75;16.75;;;;;24.52;49.70;100550.41;5058680;28;47260;-59
2021/06/02 08:08:09;;;;;;;;;14.25;14.25;;;;;24.52;49.75;100542.25;5055299;28;45388;-63
2021/06/02 08:10:35;;;;;;;;;20.50;19.25;;;;;24.55;49.94;100552.84;5054253;28;45304;-60
2021/06/02 08:13:02;;;;;;;;;15.25;15.25;;;;;24.57;49.90;100556.28;5074674;28;45604;-60
2021/06/02 08:15:28;;;;;;;;;17.75;17.75;;;;;24.60;49.77;100558.75;5059586;28;47398;-60
2021/06/02 08:17:54;;;;;;;;;18.25;18.25;;;;;24.62;49.75;100572.19;5059025;28;45539;-60
2021/06/02 08:20:19;;;;;;;;;16.50;16.50;;;;;24.64;50.04;100557.50;5057554;28;45694;-60
2021/06/02 08:22:45;;;;;;;;;15.50;15.50;;;;;24.67;49.96;100556.41;5058993;28;45505;-60
2021/06/02 08:25:14;;;;;;;;;15.25;15.25;;;;;24.71;50.08;100563.28;5061537;28;47361;-60
2021/06/02 08:27:39;;;;;;;;;18.25;16.50;;;;;24.73;50.33;100564.03;5067723;28;45461;-59
2021/06/02 08:30:08;;;;;;;;;18.50;17.75;;;;;24.75;50.15;100564.75;5058540;28;45692;-60
2021/06/02 08:32:33;;;;;;;;;17.50;15.25;;;;;24.78;49.88;100569.94;5059447;28;45406;-59
2021/06/02 08:34:59;;;;;;;;;17.75;17.25;;;;;24.83;50.18;100572.25;5062252;27;48174;-60
2021/06/02 08:37:25;;;;;;;;;18.00;18.00;;;;;24.84;50.00;100574.84;5057452;28;46038;-61
2021/06/02 08:39:50;;;;;;;;;18.25;18.25;;;;;24.84;49.98;100566.72;5050691;28;45417;-60
2021/06/02 08:42:17;;;;;;;;;18.25;18.00;;;;;24.87;49.74;100582.72;5020698;28;45624;-60
2021/06/02 08:44:43;;;;;;;;;16.00;16.00;;;;;24.90;50.39;100584.31;5030811;28;48192;-61
2021/06/02 08:47:08;;;;;;;;;16.75;16.00;;;;;24.93;50.25;100576.81;5036726;28;45464;-60
2021/06/02 08:49:34;;;;;;;;;20.00;18.00;;;;;24.96;50.05;100575.69;5028988;28;45731;-61
2021/06/02 08:52:08;;;;;;;;;16.75;16.00;;;;;25.00;50.48;100568.13;5025796;28;45545;-61
2021/06/02 08:54:34;;;;;;;;;15.25;15.25;;;;;25.02;50.27;100577.88;5032229;28;47306;-61
2021/06/02 08:57:06;;;;;;;;;18.75;17.75;;;;;25.05;50.05;100574.06;5031643;28;45298;-61
2021/06/02 08:59:32;;;;;;;;;16.00;16.00;;;;;25.08;50.32;100574.69;5038426;28;45365;-59
2021/06/02 09:01:58;;;;;;;;;13.00;12.50;;;;;25.11;50.12;100582.56;5026511;28;45734;-59
2021/06/02 09:04:25;;;;;;;;;17.25;17.00;;;;;25.16;49.83;100576.75;5049902;28;46456;-60
2021/06/02 09:06:50;;;;;;;;;17.00;17.00;;;;;25.19;50.48;100574.63;5031927;28;45353;-59
2021/06/02 09:09:17;;;;;;;;;15.50;15.50;;;;;25.24;50.32;100572.38;5024547;28;45474;-60
2021/06/02 09:11:48;;;;;;;;;14.00;14.00;;;;;25.29;50.15;100571.13;5033517;28;45581;-60
2021/06/02 09:14:30;;;;;;;;;16.75;15.75;;;;;25.33;49.98;100565.28;5030543;28;47139;-60
2021/06/02 09:16:59;;;;;;;;;19.25;19.00;;;;;25.39;49.96;100562.03;5034927;28;45697;-61
2021/06/02 09:19:35;;;;;;;;;14.00;13.00;;;;;25.43;49.93;100573.53;5030788;28;45541;-61
2021/06/02 09:22:02;;;;;;;;;17.75;17.75;;;;;25.47;49.74;100567.69;5032217;28;45525;-60
2021/06/02 09:24:57;;;;;;;;;15.25;15.25;;;;;25.51;49.80;100574.56;5027160;28;47291;-61
2021/06/02 09:27:57;;;;;;;;;20.00;19.00;;;;;25.55;49.62;100574.31;5033483;28;46073;-61
2021/06/02 09:30:31;;;;;;;;;25.50;22.50;;;;;25.58;49.63;100579.50;5035306;28;45410;-61
2021/06/02 09:33:01;;;;;;;;;18.25;16.75;;;;;25.61;49.36;100582.78;5023786;28;45768;-60
2021/06/02 09:35:46;;;;;;;;;16.75;15.00;;;;;25.65;49.80;100581.53;5028899;28;47458;-61
2021/06/02 09:38:25;;;;;;;;;15.75;15.00;;;;;25.67;49.81;100576.84;5035844;28;45404;-60
2021/06/02 09:40:57;;;;;;;;;12.75;12.75;;;;;25.71;49.85;100581.03;5032024;28;45381;-61
2021/06/02 09:43:31;;;;;;;;;19.00;19.00;;;;;25.77;49.72;100585.06;5037457;28;45590;-61
2021/06/02 09:46:10;;;;;;;;;15.25;15.25;;;;;25.83;49.37;100589.13;5028236;28;47955;-61
2021/06/02 09:48:40;;;;;;;;;18.00;16.75;;;;;25.85;49.38;100581.69;5048837;28;45561;-61
2021/06/02 09:51:06;;;;;;;;;14.50;13.75;;;;;25.88;49.38;100581.41;5029802;28;45262;-61
2021/06/02 09:53:31;;;;;;;;;14.25;14.25;;;;;25.93;49.40;100581.88;5022114;28;45571;-60
2021/06/02 09:55:57;;;;;;;;;16.25;15.75;;;;;25.96;49.36;100582.47;5025304;28;47340;-60
2021/06/02 09:58:22;;;;;;;;;16.00;16.00;;;;;26.00;49.47;100574.88;5031947;28;45783;-61
2021/06/02 10:01:00;;;;;;;;;16.25;15.75;;;;;26.05;49.50;100584.38;5035500;28;45263;-61
2021/06/02 10:03:34;;;;;;;;;16.00;15.50;;;;;26.10;49.69;100570.38;5036707;28;45843;-61
2021/06/02 10:06:00;;;;;;;;;16.75;16.50;;;;;26.13;49.26;100583.69;5035887;28;46626;-61
2021/06/02 10:08:36;;;;;;;;;15.25;14.00;;;;;26.17;49.17;100579.72;5036257;28;45836;-61
2021/06/02 10:11:12;;;;;;;;;14.50;14.50;;;;;26.21;49.16;100589.31;5032059;28;45443;-61
2021/06/02 10:13:39;;;;;;;;;18.50;16.00;;;;;26.24;48.89;100589.03;5030568;28;45606;-61
2021/06/02 10:16:05;;;;;;;;;17.00;17.00;;;;;26.27;49.45;100585.16;5033494;28;46972;-61
2021/06/02 10:18:33;;;;;;;;;16.25;15.25;;;;;26.29;48.89;100581.31;5033837;28;45497;-60
2021/06/02 10:21:11;;;;;;;;;17.50;16.75;;;;;26.32;49.27;100575.63;5032748;28;45362;-62
2021/06/02 10:23:45;;;;;;;;;16.25;14.25;;;;;26.38;49.30;100594.13;5030622;28;45601;-61
2021/06/02 10:26:19;;;;;;;;;18.25;17.00;;;;;26.40;48.81;100588.53;5028371;28;48396;-61
2021/06/02 10:28:49;;;;;;;;;16.00;16.00;;;;;26.40;49.01;100586.69;5024281;28;45801;-62
2021/06/02 10:31:15;;;;;;;;;2.25;2.25;;;;;26.40;48.65;100593.97;5020600;28;45685;-61
2021/06/02 10:33:41;;;;;;;;;17.75;16.50;;;;;26.42;48.57;100589.25;5023099;28;45913;-60
2021/06/02 10:36:09;;;;;;;;;15.00;15.00;;;;;26.45;48.99;100593.59;5036520;28;48568;-61
2021/06/02 10:39:00;;;;;;;;;16.00;15.50;;;;;26.50;48.73;100594.88;5030895;28;45326;-60
2021/06/02 10:41:34;;;;;;;;;18.75;18.75;;;;;26.55;49.19;100598.06;5034734;28;45327;-61
2021/06/02 10:44:07;;;;;;;;;20.75;17.75;;;;;26.57;48.69;100598.78;5037098;28;45616;-60
2021/06/02 10:46:37;;;;;;;;;19.75;18.25;;;;;26.57;49.24;100595.19;5033927;28;48394;-61
2021/06/02 10:49:04;;;;;;;;;18.75;17.00;;;;;26.57;48.99;100601.50;5024757;28;45469;-61
2021/06/02 10:51:30;;;;;;;;;16.75;16.00;;;;;26.58;48.49;100605.09;5029743;28;45371;-61
2021/06/02 10:54:09;;;;;;;;;16.50;14.75;;;;;26.60;48.59;100597.63;5029034;28;45466;-61
2021/06/02 10:56:36;;;;;;;;;15.50;15.50;;;;;26.62;48.59;100611.97;5033639;28;47231;-60
2021/06/02 10:59:02;;;;;;;;;16.25;16.25;;;;;26.65;48.70;100603.50;5047102;28;45831;-61
2021/06/02 11:01:31;;;;;;;;;16.50;15.50;;;;;26.70;49.07;100612.16;5036946;28;45360;-61
2021/06/02 11:04:11;;;;;;;;;14.00;14.00;;;;;26.74;48.74;100607.28;5035669;28;45490;-61
2021/06/02 11:06:44;;;;;;;;;17.00;15.25;;;;;26.76;48.84;100619.75;5037762;28;48133;-62
2021/06/02 11:09:11;;;;;;;;;16.75;16.75;;;;;26.81;49.21;100617.47;5032283;28;45917;-61
2021/06/02 11:11:39;;;;;;;;;15.50;15.00;;;;;26.87;48.57;100618.75;5038089;28;45304;-61
2021/06/02 11:14:14;;;;;;;;;17.00;14.75;;;;;26.89;48.59;100609.44;5028153;28;45563;-61
2021/06/02 11:16:42;;;;;;;;;13.50;13.50;;;;;26.90;48.27;100630.22;5030973;28;47858;-62
2021/06/02 11:19:11;;;;;;;;;15.25;14.00;;;;;26.93;47.51;100623.63;5036903;28;46069;-61
2021/06/02 11:21:52;;;;;;;;;13.50;13.00;;;;;26.96;47.77;100626.09;5030634;28;45399;-62
2021/06/02 11:24:33;;;;;;;;;18.25;15.25;;;;;27.01;47.52;100621.09;5033238;28;45814;-61
2021/06/02 11:27:11;;;;;;;;;14.00;14.00;;;;;27.05;48.26;100610.78;5030606;28;47116;-61
2021/06/02 11:30:03;;;;;;;;;15.25;15.25;;;;;27.09;47.68;100613.09;5033497;28;45709;-60
2021/06/02 11:32:31;;;;;;;;;15.75;15.50;;;;;27.10;47.47;100614.81;5031527;28;45367;-62
2021/06/02 11:35:03;;;;;;;;;15.00;14.50;;;;;27.12;47.87;100618.25;5038351;28;45682;-61
2021/06/02 11:37:31;;;;;;;;;13.00;12.25;;;;;27.14;47.42;100615.38;5033560;28;45457;-61
2021/06/02 11:39:59;;;;;;;;;14.25;14.25;;;;;27.16;47.26;100619.69;5028896;28;45729;-61
2021/06/02 11:42:29;;;;;;;;;10.25;10.25;;;;;27.20;47.24;100620.28;5035035;28;45413;-61
2021/06/02 11:44:59;;;;;;;;;15.00;15.00;;;;;27.21;47.70;100628.31;5039442;28;45335;-61
2021/06/02 11:47:26;;;;;;;;;15.25;14.25;;;;;27.23;47.45;100630.88;5029323;28;47238;-60
2021/06/02 11:50:00;;;;;;;;;15.75;13.75;;;;;27.23;47.46;100629.03;5035990;28;45387;-61
2021/06/02 11:52:26;;;;;;;;;13.25;13.25;;;;;27.23;47.08;100631.75;5023666;28;45309;-61